9F0 weather

Dublin Municipal Airport
Dublin, Texas, United States

Public forecast

Using degrees Fahrenheit for public forecast. Weather courtesy of forecast.io.

METAR (pilot weather report)

Closest report is Stephenville Clark Regional Airport, 11.6 nm (21.5 km) NE. Retrieved 2019/09/17 03:35 UTC (0 seconds ago):

KSEP 170335Z AUTO 10004KT 10SM CLR 26/16 A3003 RMK AO2 T02610162

TAF (pilot weather forecast)

Forecast is more than 12 hours old.

Closest forecast is NAS Fort Worth JRB/Carswell Field, 61.5 nm (113.8 km) NE. Retrieved 2014/12/04 15:30 UTC (5 years ago):

TAF KNFW 041500Z 0415/0515 16009KT 9999 8000 BR BKN015 OVC060 QNH3004INS TEMPO 0415/0420 3200 -DZ BR BKN009 OVC020 FM050000 16009KT 9999 BKN010 OVC040 QNH3010INS FM051200 17012KT 9999 BKN040 OVC100 QNH3012INS T24/0423Z T13/0512Z FN20046